Time;durP1;ratioP1;P1;durP2;ratioP2;P2;SDS_P1;SDS_P2;PMS_P1;PMS_P2;Temp;Humidity;BMP_temperature;BMP_pressure;BME280_temperature;BME280_humidity;BME280_pressure;Samples;Min_cycle;Max_cycle;Signal;HPM_P1;HPM_P2
2022/10/03 00:02:38;;;;;;;0.52;0.38;;;;;;;;;;5111350;28;20024;-89
2022/10/03 00:05:34;;;;;;;0.13;0.10;;;;;;;;;;5109870;28;20024;-88
2022/10/03 00:08:02;;;;;;;0.15;0.15;;;;;;;;;;5097276;28;20047;-89
2022/10/03 00:10:45;;;;;;;0.30;0.25;;;;;;;;;;5114405;27;20023;-89
2022/10/03 00:13:24;;;;;;;0.10;0.10;;;;;;;;;;5111909;28;20023;-88
2022/10/03 00:16:02;;;;;;;0.28;0.28;;;;;;;;;;5110733;28;20467;-88
2022/10/03 00:18:39;;;;;;;0.10;0.10;;;;;;;;;;5110348;28;20024;-89
2022/10/03 00:21:08;;;;;;;0.43;0.20;;;;;;;;;;5111875;28;20030;-89
2022/10/03 00:23:34;;;;;;;3.72;3.42;;;;;;;;;;5112417;28;20114;-89
2022/10/03 00:26:27;;;;;;;0.65;0.47;;;;;;;;;;5112281;28;20487;-90
2022/10/03 00:29:07;;;;;;;1.45;0.43;;;;;;;;;;5112072;28;20024;-89
2022/10/03 00:31:54;;;;;;;0.47;0.30;;;;;;;;;;5111850;28;20020;-89
2022/10/03 00:34:28;;;;;;;0.35;0.35;;;;;;;;;;5108152;28;20031;-88
2022/10/03 00:36:57;;;;;;;0.10;0.10;;;;;;;;;;5112463;28;20399;-89
2022/10/03 00:39:33;;;;;;;0.35;0.32;;;;;;;;;;5113148;28;20383;-89
2022/10/03 00:42:30;;;;;;;0.63;0.47;;;;;;;;;;5111230;28;20132;-90
2022/10/03 00:45:34;;;;;;;0.55;0.22;;;;;;;;;;5111080;28;20032;-89
2022/10/03 00:48:35;;;;;;;0.13;0.13;;;;;;;;;;5111236;28;20024;-88
2022/10/03 00:51:22;;;;;;;0.25;0.25;;;;;;;;;;5049523;28;20175;-89
2022/10/03 00:53:59;;;;;;;0.28;0.28;;;;;;;;;;5106395;28;20486;-90
2022/10/03 00:56:30;;;;;;;0.55;0.55;;;;;;;;;;5113068;28;20460;-88
2022/10/03 00:59:01;;;;;;;0.32;0.32;;;;;;;;;;5113201;28;20254;-88
2022/10/03 01:01:27;;;;;;;0.45;0.35;;;;;;;;;;5109333;28;20023;-89
2022/10/03 01:04:19;;;;;;;0.40;0.40;;;;;;;;;;5111410;28;20027;-90
2022/10/03 01:07:24;;;;;;;0.30;0.30;;;;;;;;;;5108767;28;20374;-88
2022/10/03 01:10:21;;;;;;;0.13;0.13;;;;;;;;;;5113048;28;20020;-89
2022/10/03 01:13:16;;;;;;;0.30;0.30;;;;;;;;;;5115513;28;20547;-88
2022/10/03 01:15:55;;;;;;;0.30;0.30;;;;;;;;;;5114439;28;20027;-90
2022/10/03 01:18:51;;;;;;;0.03;0.03;;;;;;;;;;5113945;28;20031;-89
2022/10/03 01:21:52;;;;;;;0.13;0.13;;;;;;;;;;5115796;28;20576;-90
2022/10/03 01:24:59;;;;;;;0.20;0.20;;;;;;;;;;5096929;28;20097;-89
2022/10/03 01:30:48;;;;;;;0.22;0.20;;;;;;;;;;5113993;28;20038;-89
2022/10/03 01:33:26;;;;;;;0.20;0.20;;;;;;;;;;5114102;28;20026;-88
2022/10/03 01:35:54;;;;;;;0.63;0.63;;;;;;;;;;5113133;28;20032;-86
2022/10/03 01:38:33;;;;;;;0.20;0.20;;;;;;;;;;5116539;28;20171;-88
2022/10/03 01:41:12;;;;;;;0.28;0.28;;;;;;;;;;5113914;28;20102;-88
2022/10/03 01:43:48;;;;;;;0.13;0.13;;;;;;;;;;5114924;28;20526;-88
2022/10/03 01:46:20;;;;;;;0.22;0.20;;;;;;;;;;5116919;28;20023;-88
2022/10/03 01:49:04;;;;;;;0.25;0.25;;;;;;;;;;5115564;28;20019;-88
2022/10/03 01:51:48;;;;;;;0.38;0.38;;;;;;;;;;5115184;28;20031;-87
2022/10/03 01:54:28;;;;;;;0.30;0.30;;;;;;;;;;5112949;28;20044;-88
2022/10/03 01:57:08;;;;;;;0.13;0.13;;;;;;;;;;5116239;28;20098;-88
2022/10/03 01:59:46;;;;;;;0.10;0.10;;;;;;;;;;5109262;28;20054;-87
2022/10/03 02:02:29;;;;;;;0.20;0.20;;;;;;;;;;5112651;28;20028;-87
2022/10/03 02:05:13;;;;;;;0.15;0.15;;;;;;;;;;5113731;28;20031;-89
2022/10/03 02:07:40;;;;;;;0.22;0.22;;;;;;;;;;5115448;28;20038;-88
2022/10/03 02:10:06;;;;;;;0.47;0.47;;;;;;;;;;5110341;28;20076;-89
2022/10/03 02:12:47;;;;;;;0.32;0.32;;;;;;;;;;5115465;28;20024;-88
2022/10/03 02:15:20;;;;;;;0.10;0.10;;;;;;;;;;5113476;28;20035;-88
2022/10/03 02:17:51;;;;;;;0.65;0.43;;;;;;;;;;5111504;28;20027;-89
2022/10/03 02:20:44;;;;;;;0.45;0.20;;;;;;;;;;5115354;28;20043;-89
2022/10/03 02:23:45;;;;;;;0.30;0.30;;;;;;;;;;5107871;28;20031;-87
2022/10/03 02:26:59;;;;;;;0.40;0.20;;;;;;;;;;5113314;28;20118;-88
2022/10/03 02:29:58;;;;;;;0.40;0.40;;;;;;;;;;5115026;27;20057;-88
2022/10/03 02:32:45;;;;;;;0.25;0.25;;;;;;;;;;5114048;28;20061;-88
2022/10/03 02:35:26;;;;;;;0.32;0.32;;;;;;;;;;5114224;27;20555;-88
2022/10/03 02:38:05;;;;;;;0.20;0.20;;;;;;;;;;5114239;28;20019;-88
2022/10/03 02:41:05;;;;;;;0.32;0.32;;;;;;;;;;5111695;28;20020;-87
2022/10/03 02:44:07;;;;;;;0.17;0.17;;;;;;;;;;5114076;27;20070;-87
2022/10/03 02:47:11;;;;;;;0.10;0.10;;;;;;;;;;5113175;28;20069;-87
2022/10/03 02:49:55;;;;;;;0.50;0.50;;;;;;;;;;5112484;28;20023;-90
2022/10/03 02:52:23;;;;;;;0.30;0.30;;;;;;;;;;5113706;27;20044;-88
2022/10/03 02:55:10;;;;;;;0.20;0.20;;;;;;;;;;5116626;27;20035;-87
2022/10/03 02:57:58;;;;;;;0.15;0.15;;;;;;;;;;5114108;28;20062;-88
2022/10/03 03:00:56;;;;;;;0.20;0.20;;;;;;;;;;5113862;28;20036;-88
2022/10/03 03:04:01;;;;;;;0.10;0.10;;;;;;;;;;5114041;28;20019;-88
2022/10/03 03:07:18;;;;;;;0.28;0.17;;;;;;;;;;5113766;28;20023;-87
2022/10/03 03:10:22;;;;;;;0.20;0.20;;;;;;;;;;5026572;28;20039;-88
2022/10/03 03:13:08;;;;;;;0.30;0.30;;;;;;;;;;5047629;28;20066;-88
2022/10/03 03:16:01;;;;;;;0.30;0.22;;;;;;;;;;5113941;28;20500;-88
2022/10/03 03:18:38;;;;;;;0.22;0.22;;;;;;;;;;5114233;28;20085;-89
2022/10/03 03:21:06;;;;;;;0.20;0.20;;;;;;;;;;5115600;28;20027;-87
2022/10/03 03:23:44;;;;;;;0.10;0.10;;;;;;;;;;5112756;28;20020;-87
2022/10/03 03:26:21;;;;;;;0.20;0.17;;;;;;;;;;5114288;28;20357;-87
2022/10/03 03:29:07;;;;;;;0.85;0.38;;;;;;;;;;5109583;28;20054;-88
2022/10/03 03:31:45;;;;;;;0.10;0.10;;;;;;;;;;5110894;28;20028;-89
2022/10/03 03:34:18;;;;;;;0.55;0.30;;;;;;;;;;5114101;28;20085;-87
2022/10/03 03:36:59;;;;;;;0.20;0.20;;;;;;;;;;5112660;28;20101;-90
2022/10/03 03:39:33;;;;;;;0.25;0.25;;;;;;;;;;5112731;28;20027;-87
2022/10/03 03:42:08;;;;;;;0.35;0.20;;;;;;;;;;5112857;28;20107;-89
2022/10/03 03:44:36;;;;;;;0.30;0.30;;;;;;;;;;5113059;27;20051;-89
2022/10/03 03:47:16;;;;;;;0.30;0.30;;;;;;;;;;5112726;28;20428;-87
2022/10/03 03:50:15;;;;;;;0.20;0.10;;;;;;;;;;5112120;28;20019;-88
2022/10/03 03:53:09;;;;;;;0.20;0.20;;;;;;;;;;5108381;28;20040;-88
2022/10/03 03:55:47;;;;;;;0.20;0.20;;;;;;;;;;5112347;28;20275;-90
2022/10/03 03:58:33;;;;;;;0.10;0.10;;;;;;;;;;5111919;28;20490;-88
2022/10/03 04:01:13;;;;;;;0.55;0.52;;;;;;;;;;5113154;28;20024;-88
2022/10/03 04:03:57;;;;;;;0.10;0.10;;;;;;;;;;5112677;28;20435;-88
2022/10/03 04:06:42;;;;;;;1.05;0.68;;;;;;;;;;5111358;28;20080;-89
2022/10/03 04:09:46;;;;;;;0.03;0.03;;;;;;;;;;5111609;28;20030;-88
2022/10/03 04:12:35;;;;;;;0.45;0.45;;;;;;;;;;5070725;28;20035;-89
2022/10/03 04:15:10;;;;;;;0.25;0.25;;;;;;;;;;5054228;28;20539;-87
2022/10/03 04:21:15;;;;;;;0.25;0.25;;;;;;;;;;5113099;28;20096;-87
2022/10/03 04:23:59;;;;;;;0.20;0.20;;;;;;;;;;5111935;28;20604;-88
2022/10/03 04:26:52;;;;;;;0.10;0.10;;;;;;;;;;5111369;28;20027;-88
2022/10/03 04:29:27;;;;;;;0.20;0.20;;;;;;;;;;5110955;28;20028;-87
2022/10/03 04:31:54;;;;;;;0.22;0.22;;;;;;;;;;5112541;27;20022;-89
2022/10/03 04:34:57;;;;;;;0.43;0.43;;;;;;;;;;5112695;28;20176;-89
2022/10/03 04:37:40;;;;;;;0.10;0.10;;;;;;;;;;5113445;28;20058;-89
2022/10/03 04:40:17;;;;;;;0.68;0.68;;;;;;;;;;5110962;28;20027;-88
2022/10/03 04:42:57;;;;;;;1.45;0.13;;;;;;;;;;5114470;28;20055;-88
2022/10/03 04:45:38;;;;;;;0.20;0.20;;;;;;;;;;5110453;28;20019;-88
2022/10/03 04:48:44;;;;;;;0.20;0.20;;;;;;;;;;5108443;28;20031;-88
2022/10/03 04:51:31;;;;;;;0.20;0.20;;;;;;;;;;5107543;28;20039;-89
2022/10/03 04:54:08;;;;;;;0.10;0.10;;;;;;;;;;5111106;28;20040;-87
2022/10/03 04:57:24;;;;;;;0.35;0.22;;;;;;;;;;5110025;28;20158;-87
2022/10/03 05:00:11;;;;;;;0.85;0.75;;;;;;;;;;5091771;28;20035;-87
2022/10/03 05:02:51;;;;;;;0.10;0.10;;;;;;;;;;5106208;28;20500;-87
2022/10/03 05:05:39;;;;;;;0.10;0.10;;;;;;;;;;5113436;28;20050;-89
2022/10/03 05:08:14;;;;;;;0.40;0.30;;;;;;;;;;5112261;28;20051;-88
2022/10/03 05:10:55;;;;;;;0.10;0.10;;;;;;;;;;5111491;28;20039;-89
2022/10/03 05:13:42;;;;;;;0.50;0.30;;;;;;;;;;5111243;28;20034;-88
2022/10/03 05:16:15;;;;;;;0.40;0.40;;;;;;;;;;5111037;28;20038;-88
2022/10/03 05:18:43;;;;;;;0.32;0.32;;;;;;;;;;5111763;28;20036;-87
2022/10/03 05:21:35;;;;;;;0.20;0.20;;;;;;;;;;5112894;28;20072;-88
2022/10/03 05:24:19;;;;;;;0.40;0.32;;;;;;;;;;5110251;28;20051;-87
2022/10/03 05:26:58;;;;;;;0.50;0.47;;;;;;;;;;5112072;28;20028;-87
2022/10/03 05:29:36;;;;;;;0.73;0.28;;;;;;;;;;5109387;28;20024;-90
2022/10/03 05:32:19;;;;;;;0.28;0.28;;;;;;;;;;5110973;28;20538;-89
2022/10/03 05:34:51;;;;;;;0.50;0.30;;;;;;;;;;5111017;28;20027;-88
2022/10/03 05:37:45;;;;;;;1.40;1.10;;;;;;;;;;5112652;28;20019;-89
2022/10/03 05:40:22;;;;;;;1.80;1.55;;;;;;;;;;5099568;28;20380;-88
2022/10/03 05:42:48;;;;;;;2.75;2.30;;;;;;;;;;5108406;28;20020;-88
2022/10/03 05:45:44;;;;;;;2.10;1.75;;;;;;;;;;5109503;28;20100;-88
2022/10/03 05:48:48;;;;;;;1.02;0.98;;;;;;;;;;5112756;28;20039;-86
2022/10/03 05:51:22;;;;;;;0.63;0.63;;;;;;;;;;5111136;28;20039;-87
2022/10/03 05:54:03;;;;;;;0.93;0.40;;;;;;;;;;5110819;28;20085;-87
2022/10/03 05:56:39;;;;;;;0.40;0.40;;;;;;;;;;5111964;28;20490;-86
2022/10/03 05:59:05;;;;;;;0.55;0.43;;;;;;;;;;5113850;28;20468;-86
2022/10/03 06:02:09;;;;;;;1.13;0.80;;;;;;;;;;5113643;28;20023;-82
2022/10/03 06:04:58;;;;;;;0.55;0.55;;;;;;;;;;5113952;28;20501;-86
2022/10/03 06:07:39;;;;;;;0.55;0.52;;;;;;;;;;5114723;28;20471;-88
2022/10/03 06:10:26;;;;;;;1.38;0.73;;;;;;;;;;5112796;28;20995;-85
2022/10/03 06:13:03;;;;;;;2.05;0.95;;;;;;;;;;5114799;28;20444;-88
2022/10/03 06:15:48;;;;;;;1.33;0.82;;;;;;;;;;5113360;28;20030;-87
2022/10/03 06:18:30;;;;;;;0.50;0.50;;;;;;;;;;5114898;28;20043;-85
2022/10/03 06:21:14;;;;;;;0.88;0.68;;;;;;;;;;5114422;28;20064;-89
2022/10/03 06:23:46;;;;;;;1.10;0.95;;;;;;;;;;5113339;28;20023;-88
2022/10/03 06:26:45;;;;;;;1.73;1.35;;;;;;;;;;5113981;28;20051;-87
2022/10/03 06:30:02;;;;;;;1.25;0.80;;;;;;;;;;5110112;28;20114;-85
2022/10/03 06:32:37;;;;;;;0.93;0.80;;;;;;;;;;5084884;28;20050;-86
2022/10/03 06:35:36;;;;;;;0.90;0.80;;;;;;;;;;5112975;28;20118;-87
2022/10/03 06:38:08;;;;;;;0.95;0.85;;;;;;;;;;5114564;28;20028;-85
2022/10/03 06:40:47;;;;;;;1.75;1.50;;;;;;;;;;5116247;27;20054;-87
2022/10/03 06:43:47;;;;;;;1.87;0.73;;;;;;;;;;5114158;28;20020;-89
2022/10/03 06:46:37;;;;;;;1.92;1.45;;;;;;;;;;5112211;28;20098;-87
2022/10/03 06:49:08;;;;;;;;;;;;;;;;;;5116572;28;20032;-84
2022/10/03 06:52:18;;;;;;;11.73;4.97;;;;;;;;;;5114964;28;19919;-88
2022/10/03 06:55:09;;;;;;;9.10;4.55;;;;;;;;;;5104531;27;20082;-88
2022/10/03 06:58:03;;;;;;;0.82;0.77;;;;;;;;;;5114918;28;20028;-90
2022/10/03 07:08:44;;;;;;;2.40;1.27;;;;;;;;;;5078438;28;20058;-86
2022/10/03 07:11:45;;;;;;;1.13;0.98;;;;;;;;;;5072320;28;20046;-86
2022/10/03 07:14:54;;;;;;;0.80;0.60;;;;;;;;;;5101323;28;20467;-82
2022/10/03 07:17:47;;;;;;;0.90;0.85;;;;;;;;;;5105432;28;20507;-84
2022/10/03 07:20:58;;;;;;;1.38;1.00;;;;;;;;;;5111708;28;20453;-86
2022/10/03 07:23:45;;;;;;;0.50;0.50;;;;;;;;;;5111283;28;20027;-84
2022/10/03 07:27:01;;;;;;;0.65;0.65;;;;;;;;;;5111463;28;20096;-85
2022/10/03 07:29:35;;;;;;;0.85;0.70;;;;;;;;;;5114591;28;20043;-88
2022/10/03 07:46:55;;;;;;;4.13;1.70;;;;;;;;;;5035935;28;20037;-87
2022/10/03 08:03:43;;;;;;;1.52;1.27;;;;;;;;;;4950759;28;20035;-88
2022/10/03 08:06:45;;;;;;;2.35;2.15;;;;;;;;;;4939362;28;20053;-87
2022/10/03 08:21:02;;;;;;;1.15;0.95;;;;;;;;;;5086170;28;20492;-87
2022/10/03 08:24:12;;;;;;;0.77;0.50;;;;;;;;;;5053732;28;20041;-86
2022/10/03 08:27:11;;;;;;;0.55;0.55;;;;;;;;;;5021209;28;20064;-88
2022/10/03 08:29:55;;;;;;;0.47;0.45;;;;;;;;;;5056323;28;20041;-87
2022/10/03 08:32:30;;;;;;;1.52;0.70;;;;;;;;;;5058149;28;20546;-89
2022/10/03 08:35:10;;;;;;;0.47;0.47;;;;;;;;;;5056895;28;20032;-86
2022/10/03 08:38:06;;;;;;;1.00;0.70;;;;;;;;;;5054523;28;20044;-86
2022/10/03 08:40:55;;;;;;;1.58;1.48;;;;;;;;;;5068071;28;20040;-88
2022/10/03 08:43:54;;;;;;;0.52;0.40;;;;;;;;;;5072198;28;20035;-87
2022/10/03 08:47:03;;;;;;;1.57;0.93;;;;;;;;;;5047031;28;20036;-88
2022/10/03 08:49:58;;;;;;;0.90;0.68;;;;;;;;;;5053686;28;20028;-87
2022/10/03 08:52:50;;;;;;;0.25;0.25;;;;;;;;;;5054320;28;20047;-88
2022/10/03 08:55:41;;;;;;;0.60;0.55;;;;;;;;;;5038580;28;20385;-88
2022/10/03 08:58:16;;;;;;;3.05;1.17;;;;;;;;;;5065593;28;20113;-88
2022/10/03 09:00:56;;;;;;;1.90;1.15;;;;;;;;;;5063512;28;20036;-88
2022/10/03 09:04:00;;;;;;;0.82;0.70;;;;;;;;;;5061883;28;20385;-87
2022/10/03 09:06:37;;;;;;;0.20;0.20;;;;;;;;;;5031406;28;20040;-88
2022/10/03 09:09:27;;;;;;;1.73;1.38;;;;;;;;;;5065698;28;20044;-89
2022/10/03 09:12:25;;;;;;;1.40;1.08;;;;;;;;;;5071632;28;20029;-89
2022/10/03 09:14:59;;;;;;;0.65;0.60;;;;;;;;;;5034566;28;20048;-86
2022/10/03 09:18:05;;;;;;;0.52;0.52;;;;;;;;;;5053782;28;20036;-88
2022/10/03 09:20:49;;;;;;;0.55;0.47;;;;;;;;;;5050262;28;21175;-87
2022/10/03 09:23:14;;;;;;;0.95;0.93;;;;;;;;;;5064904;28;20036;-87
2022/10/03 09:26:23;;;;;;;0.85;0.77;;;;;;;;;;5068743;28;20044;-90
2022/10/03 09:29:05;;;;;;;0.38;0.32;;;;;;;;;;5067895;28;20032;-87
2022/10/03 09:31:39;;;;;;;0.50;0.35;;;;;;;;;;5074466;28;20150;-85
2022/10/03 09:34:29;;;;;;;0.70;0.57;;;;;;;;;;5051265;28;20044;-88
2022/10/03 09:37:30;;;;;;;0.50;0.32;;;;;;;;;;5067421;28;20412;-87
2022/10/03 09:40:18;;;;;;;0.32;0.32;;;;;;;;;;5054610;28;21224;-84
2022/10/03 09:43:08;;;;;;;0.85;0.65;;;;;;;;;;5051934;28;20072;-84
2022/10/03 09:45:58;;;;;;;0.88;0.68;;;;;;;;;;5055690;28;20040;-84
2022/10/03 09:48:31;;;;;;;0.93;0.75;;;;;;;;;;5053651;28;20372;-87
2022/10/03 09:51:20;;;;;;;0.30;0.30;;;;;;;;;;5055851;28;20032;-86
2022/10/03 09:54:07;;;;;;;1.08;0.88;;;;;;;;;;5066393;28;20050;-86
2022/10/03 09:56:50;;;;;;;0.57;0.50;;;;;;;;;;5047182;28;20040;-86
2022/10/03 09:59:37;;;;;;;0.65;0.65;;;;;;;;;;5069771;28;20392;-87
2022/10/03 10:02:37;;;;;;;0.32;0.32;;;;;;;;;;5055870;28;20024;-88
2022/10/03 10:05:30;;;;;;;0.45;0.40;;;;;;;;;;5055709;28;20040;-85
2022/10/03 10:08:04;;;;;;;0.70;0.70;;;;;;;;;;5053318;28;20043;-85
2022/10/03 10:10:50;;;;;;;0.77;0.60;;;;;;;;;;5055794;28;20387;-86
2022/10/03 10:13:37;;;;;;;1.60;0.95;;;;;;;;;;5074439;28;20080;-87
2022/10/03 10:16:24;;;;;;;0.90;0.52;;;;;;;;;;5071664;28;20171;-84
2022/10/03 10:19:27;;;;;;;0.57;0.57;;;;;;;;;;5055957;28;20068;-86
2022/10/03 10:22:29;;;;;;;0.60;0.60;;;;;;;;;;5053149;28;20487;-85
2022/10/03 10:25:23;;;;;;;0.63;0.55;;;;;;;;;;5073249;28;20058;-90
2022/10/03 10:28:23;;;;;;;0.70;0.60;;;;;;;;;;5052278;28;20060;-84
2022/10/03 10:31:16;;;;;;;0.40;0.40;;;;;;;;;;5054069;28;20423;-87
2022/10/03 10:34:14;;;;;;;0.65;0.65;;;;;;;;;;5071224;28;20512;-87
2022/10/03 10:36:51;;;;;;;0.57;0.57;;;;;;;;;;5056067;28;20038;-88
2022/10/03 10:39:40;;;;;;;0.85;0.55;;;;;;;;;;5056669;28;20120;-87
2022/10/03 10:42:24;;;;;;;0.75;0.70;;;;;;;;;;5068946;28;20038;-91
2022/10/03 10:45:27;;;;;;;0.38;0.38;;;;;;;;;;5071487;28;20040;-88
2022/10/03 10:48:01;;;;;;;1.15;0.60;;;;;;;;;;5073284;28;20432;-89
2022/10/03 10:51:17;;;;;;;0.40;0.40;;;;;;;;;;5071524;28;20097;-87
2022/10/03 10:54:27;;;;;;;0.25;0.25;;;;;;;;;;4994534;28;20403;-91
2022/10/03 10:57:30;;;;;;;0.40;0.30;;;;;;;;;;5074336;28;20028;-85
2022/10/03 11:00:26;;;;;;;0.25;0.25;;;;;;;;;;5055788;28;20091;-88
2022/10/03 11:03:16;;;;;;;0.45;0.45;;;;;;;;;;5069299;28;20500;-89
2022/10/03 11:06:18;;;;;;;0.45;0.45;;;;;;;;;;5053142;28;20028;-87
2022/10/03 11:08:44;;;;;;;0.30;0.30;;;;;;;;;;5055072;28;20037;-88
2022/10/03 11:11:24;;;;;;;0.80;0.75;;;;;;;;;;5055496;28;20036;-89
2022/10/03 11:14:14;;;;;;;1.05;0.50;;;;;;;;;;5072926;28;20112;-86
2022/10/03 11:17:01;;;;;;;0.65;0.43;;;;;;;;;;5071453;28;20476;-87
2022/10/03 11:20:01;;;;;;;1.95;1.27;;;;;;;;;;5055135;28;20554;-85
2022/10/03 11:22:38;;;;;;;0.50;0.45;;;;;;;;;;5055998;28;20055;-86
2022/10/03 11:25:30;;;;;;;0.40;0.40;;;;;;;;;;5053557;28;20032;-85
2022/10/03 11:28:17;;;;;;;0.40;0.40;;;;;;;;;;5054839;28;20040;-86
2022/10/03 11:31:20;;;;;;;1.58;0.75;;;;;;;;;;5055017;28;20129;-86
2022/10/03 11:33:55;;;;;;;2.35;0.90;;;;;;;;;;5055604;28;20040;-85
2022/10/03 11:36:42;;;;;;;0.70;0.70;;;;;;;;;;5068296;28;20424;-88
2022/10/03 11:40:00;;;;;;;0.47;0.47;;;;;;;;;;5054242;28;20035;-87
2022/10/03 11:42:50;;;;;;;0.80;0.63;;;;;;;;;;5044972;28;20488;-87
2022/10/03 11:45:53;;;;;;;0.82;0.68;;;;;;;;;;5068196;28;20064;-88
2022/10/03 11:48:31;;;;;;;0.60;0.50;;;;;;;;;;5054292;28;20507;-86
2022/10/03 11:51:27;;;;;;;1.85;0.63;;;;;;;;;;5071268;28;20047;-88
2022/10/03 11:54:04;;;;;;;0.85;0.73;;;;;;;;;;5024005;28;20131;-86
2022/10/03 11:57:05;;;;;;;0.50;0.50;;;;;;;;;;5064573;28;20101;-88
2022/10/03 11:59:54;;;;;;;0.68;0.60;;;;;;;;;;5018240;28;20041;-87
2022/10/03 12:03:07;;;;;;;0.55;0.47;;;;;;;;;;5050344;28;20098;-88
2022/10/03 12:08:53;;;;;;;0.68;0.60;;;;;;;;;;4984765;28;20047;-86
2022/10/03 12:09:16;;;;;;;0.43;0.43;;;;;;;;;;5006521;28;20030;-86
2022/10/03 12:12:05;;;;;;;0.52;0.45;;;;;;;;;;5070667;28;20060;-86
2022/10/03 12:14:39;;;;;;;1.83;1.37;;;;;;;;;;5057957;28;20037;-87
2022/10/03 12:17:22;;;;;;;1.25;0.77;;;;;;;;;;5070310;28;20032;-88
2022/10/03 12:20:30;;;;;;;0.95;0.80;;;;;;;;;;5053375;28;20507;-87
2022/10/03 12:23:33;;;;;;;0.60;0.60;;;;;;;;;;5053982;28;20094;-87
2022/10/03 12:26:02;;;;;;;0.60;0.60;;;;;;;;;;5053420;28;20032;-88
2022/10/03 12:28:43;;;;;;;0.70;0.70;;;;;;;;;;5072350;28;20039;-88
2022/10/03 12:31:23;;;;;;;1.02;0.63;;;;;;;;;;5068072;28;20090;-89
2022/10/03 12:34:07;;;;;;;;;;;;;;;;;;5071707;28;20035;-86
2022/10/03 12:36:52;;;;;;;0.90;0.77;;;;;;;;;;5069081;28;19965;-88
2022/10/03 12:39:24;;;;;;;1.10;0.95;;;;;;;;;;5054357;28;20480;-88
2022/10/03 12:42:17;;;;;;;1.23;1.05;;;;;;;;;;5053081;28;20032;-89
2022/10/03 12:44:58;;;;;;;0.75;0.65;;;;;;;;;;5069575;28;20492;-90
2022/10/03 12:47:47;;;;;;;1.42;1.00;;;;;;;;;;5052759;28;20071;-86
2022/10/03 12:50:16;;;;;;;0.50;0.50;;;;;;;;;;5056994;28;20481;-88
2022/10/03 12:53:09;;;;;;;1.00;0.65;;;;;;;;;;5073965;28;20048;-85
2022/10/03 12:55:45;;;;;;;0.80;0.70;;;;;;;;;;5072875;28;20037;-88
2022/10/03 12:58:37;;;;;;;2.50;1.00;;;;;;;;;;5051480;28;20041;-86
2022/10/03 13:01:17;;;;;;;1.02;0.70;;;;;;;;;;5070702;28;20480;-87
2022/10/03 13:04:23;;;;;;;2.78;1.80;;;;;;;;;;5070730;28;20039;-87
2022/10/03 13:07:19;;;;;;;1.73;0.60;;;;;;;;;;5069151;28;20062;-87
2022/10/03 13:09:57;;;;;;;1.15;0.98;;;;;;;;;;5054824;28;20032;-89
2022/10/03 13:12:57;;;;;;;1.83;1.30;;;;;;;;;;5068629;28;20045;-88
2022/10/03 13:16:03;;;;;;;0.80;0.73;;;;;;;;;;5019417;28;20032;-87
2022/10/03 13:18:50;;;;;;;0.88;0.80;;;;;;;;;;5048251;28;20044;-89
2022/10/03 13:21:34;;;;;;;0.63;0.63;;;;;;;;;;5067924;28;20128;-90
2022/10/03 13:24:05;;;;;;;1.02;0.82;;;;;;;;;;5050994;28;20490;-87
2022/10/03 13:26:58;;;;;;;1.15;0.70;;;;;;;;;;5050247;28;20028;-88
2022/10/03 13:29:28;;;;;;;1.08;0.77;;;;;;;;;;5047864;28;20040;-90
2022/10/03 13:32:25;;;;;;;0.50;0.50;;;;;;;;;;5052679;28;20032;-89
2022/10/03 13:38:22;;;;;;;1.48;1.15;;;;;;;;;;5067539;28;20562;-87
2022/10/03 13:41:25;;;;;;;0.95;0.88;;;;;;;;;;5046434;28;20041;-87
2022/10/03 13:43:58;;;;;;;0.57;0.57;;;;;;;;;;5069373;28;20040;-87
2022/10/03 13:46:52;;;;;;;0.73;0.57;;;;;;;;;;5054735;28;20516;-90
2022/10/03 13:49:42;;;;;;;1.20;0.90;;;;;;;;;;5051442;28;20492;-90
2022/10/03 13:52:22;;;;;;;0.70;0.70;;;;;;;;;;5051361;28;20032;-89
2022/10/03 13:55:18;;;;;;;0.82;0.68;;;;;;;;;;5052693;28;20037;-89
2022/10/03 13:57:51;;;;;;;0.70;0.60;;;;;;;;;;5049893;28;20050;-88
2022/10/03 14:00:27;;;;;;;1.42;1.00;;;;;;;;;;5069273;28;20690;-88
2022/10/03 14:03:07;;;;;;;0.47;0.47;;;;;;;;;;5053159;28;20048;-89
2022/10/03 14:05:33;;;;;;;0.70;0.70;;;;;;;;;;5054200;28;20088;-87
2022/10/03 14:08:28;;;;;;;0.68;0.68;;;;;;;;;;5068621;28;20067;-87
2022/10/03 14:11:52;;;;;;;0.98;0.90;;;;;;;;;;5070493;28;20378;-86
2022/10/03 14:14:36;;;;;;;0.80;0.63;;;;;;;;;;5025613;28;20091;-88
2022/10/03 14:17:15;;;;;;;1.15;0.82;;;;;;;;;;5052950;28;20040;-87
2022/10/03 14:19:48;;;;;;;0.28;0.28;;;;;;;;;;5056881;28;20048;-86
2022/10/03 14:23:01;;;;;;;0.40;0.40;;;;;;;;;;5054519;28;20033;-87
2022/10/03 14:25:55;;;;;;;1.15;0.47;;;;;;;;;;5063294;28;20033;-86
2022/10/03 14:28:42;;;;;;;0.30;0.30;;;;;;;;;;5055372;28;20036;-84
2022/10/03 14:31:37;;;;;;;0.55;0.55;;;;;;;;;;5044150;28;20039;-86
2022/10/03 14:34:45;;;;;;;1.10;0.88;;;;;;;;;;5048706;28;20059;-85
2022/10/03 14:37:19;;;;;;;0.80;0.68;;;;;;;;;;5030375;28;20036;-86
2022/10/03 14:39:59;;;;;;;0.75;0.68;;;;;;;;;;5056337;28;20112;-87
2022/10/03 14:42:33;;;;;;;0.57;0.57;;;;;;;;;;5044995;28;20041;-87
2022/10/03 14:45:11;;;;;;;0.60;0.60;;;;;;;;;;5049863;28;20032;-86
2022/10/03 14:47:41;;;;;;;0.50;0.40;;;;;;;;;;5051084;28;20492;-84
2022/10/03 14:50:13;;;;;;;;;;;;;;;;;;5074035;28;20040;-85
2022/10/03 14:52:47;;;;;;;0.52;0.52;;;;;;;;;;5072712;28;20017;-86
2022/10/03 14:55:30;;;;;;;0.60;0.60;;;;;;;;;;5073912;28;20052;-86
2022/10/03 14:58:01;;;;;;;0.47;0.38;;;;;;;;;;5071810;28;20036;-87
2022/10/03 15:00:41;;;;;;;0.65;0.65;;;;;;;;;;5054636;28;20035;-87
2022/10/03 15:03:12;;;;;;;;;;;;;;;;;;5069916;28;20392;-88
2022/10/03 15:05:55;;;;;;;5.05;2.05;;;;;;;;;;5074703;28;19912;-90
2022/10/03 15:08:22;;;;;;;0.85;0.82;;;;;;;;;;5055425;28;20060;-90
2022/10/03 15:10:52;;;;;;;0.60;0.45;;;;;;;;;;5056494;28;20032;-93
2022/10/03 15:13:19;;;;;;;1.17;0.90;;;;;;;;;;5050580;28;20497;-92
2022/10/03 15:15:46;;;;;;;0.88;0.47;;;;;;;;;;5055062;28;20500;-90
2022/10/03 15:18:20;;;;;;;1.05;0.90;;;;;;;;;;5056910;28;20124;-91
2022/10/03 15:20:50;;;;;;;1.00;0.90;;;;;;;;;;5048321;28;20036;-91
2022/10/03 15:23:32;;;;;;;0.45;0.45;;;;;;;;;;5056208;28;20498;-89
2022/10/03 15:25:57;;;;;;;0.43;0.43;;;;;;;;;;5054464;28;20032;-90
2022/10/03 15:28:29;;;;;;;1.10;0.82;;;;;;;;;;5053588;28;20052;-88
2022/10/03 15:30:56;;;;;;;0.32;0.32;;;;;;;;;;5056538;28;20043;-90
2022/10/03 15:33:31;;;;;;;0.70;0.52;;;;;;;;;;5050388;28;20043;-90
2022/10/03 15:36:05;;;;;;;0.60;0.50;;;;;;;;;;5073481;28;20033;-91
2022/10/03 15:38:38;;;;;;;0.55;0.45;;;;;;;;;;5069146;28;20071;-88
2022/10/03 15:41:25;;;;;;;0.20;0.20;;;;;;;;;;5055761;28;20024;-90
2022/10/03 15:44:03;;;;;;;0.60;0.60;;;;;;;;;;5050597;28;20114;-88
2022/10/03 15:46:41;;;;;;;0.45;0.45;;;;;;;;;;5052629;28;20040;-89
2022/10/03 15:49:18;;;;;;;0.63;0.40;;;;;;;;;;5059275;28;20451;-90
2022/10/03 15:51:46;;;;;;;0.15;0.15;;;;;;;;;;5075225;28;20041;-88
2022/10/03 15:54:19;;;;;;;0.40;0.40;;;;;;;;;;5058728;28;20039;-89
2022/10/03 15:56:50;;;;;;;0.80;0.50;;;;;;;;;;5074624;28;20044;-89
2022/10/03 15:59:24;;;;;;;0.40;0.40;;;;;;;;;;5054871;28;20040;-91
2022/10/03 16:01:52;;;;;;;0.28;0.28;;;;;;;;;;5068413;28;20031;-90
2022/10/03 16:04:20;;;;;;;1.40;0.60;;;;;;;;;;5050844;28;20121;-88
2022/10/03 16:07:02;;;;;;;0.30;0.30;;;;;;;;;;5068994;28;20032;-89
2022/10/03 16:10:03;;;;;;;0.60;0.43;;;;;;;;;;5048740;28;20083;-86
2022/10/03 16:12:51;;;;;;;0.17;0.15;;;;;;;;;;5055203;28;20032;-89
2022/10/03 16:15:39;;;;;;;0.52;0.52;;;;;;;;;;5070131;28;20032;-87
2022/10/03 16:18:29;;;;;;;1.25;0.60;;;;;;;;;;5031305;28;20153;-88
2022/10/03 16:20:58;;;;;;;0.20;0.20;;;;;;;;;;5044016;28;20067;-87
2022/10/03 16:23:28;;;;;;;0.13;0.10;;;;;;;;;;5060221;28;20036;-88
2022/10/03 16:25:58;;;;;;;0.20;0.17;;;;;;;;;;5055954;28;20032;-90
2022/10/03 16:28:38;;;;;;;0.47;0.30;;;;;;;;;;5044329;28;20481;-89
2022/10/03 16:31:21;;;;;;;0.47;0.43;;;;;;;;;;5033166;28;20033;-88
2022/10/03 16:34:02;;;;;;;0.30;0.30;;;;;;;;;;5040713;28;20476;-89
2022/10/03 16:36:40;;;;;;;0.25;0.25;;;;;;;;;;5054432;28;20036;-87
2022/10/03 16:39:33;;;;;;;1.13;0.40;;;;;;;;;;5028365;28;20079;-85
2022/10/03 16:42:07;;;;;;;0.40;0.40;;;;;;;;;;5039809;28;20480;-86
2022/10/03 16:44:45;;;;;;;0.30;0.30;;;;;;;;;;5040991;28;20029;-86
2022/10/03 16:47:11;;;;;;;0.30;0.25;;;;;;;;;;5058083;28;20048;-88
2022/10/03 16:52:37;;;;;;;0.15;0.15;;;;;;;;;;5060831;28;20052;-85
2022/10/03 16:55:14;;;;;;;0.65;0.20;;;;;;;;;;5044707;28;20040;-85
2022/10/03 16:57:55;;;;;;;0.75;0.52;;;;;;;;;;5034125;28;20037;-89
2022/10/03 17:00:37;;;;;;;0.47;0.28;;;;;;;;;;5039604;28;20459;-87
2022/10/03 17:03:12;;;;;;;0.47;0.38;;;;;;;;;;5029617;28;20171;-88
2022/10/03 17:06:00;;;;;;;0.22;0.22;;;;;;;;;;5039181;28;20039;-88
2022/10/03 17:08:31;;;;;;;0.25;0.20;;;;;;;;;;5064537;28;20036;-87
2022/10/03 17:11:46;;;;;;;;;;;;;;;;;;;;;
2022/10/03 17:18:01;;;;;;;0.43;0.30;;;;;;;;;;4993347;28;20109;-91
2022/10/03 17:27:37;;;;;;;0.40;0.40;;;;;;;;;;4992459;28;20431;-87
2022/10/03 17:30:21;;;;;;;0.70;0.70;;;;;;;;;;5050210;28;20033;-91
2022/10/03 17:33:22;;;;;;;3.40;2.08;;;;;;;;;;5073339;28;20075;-90
2022/10/03 17:36:21;;;;;;;0.30;0.30;;;;;;;;;;5055231;28;20032;-91
2022/10/03 17:39:26;;;;;;;;;;;;;;;;;;;;;
2022/10/03 17:41:59;;;;;;;0.65;0.38;;;;;;;;;;5036788;28;20555;-87
2022/10/03 17:45:01;;;;;;;0.40;0.40;;;;;;;;;;5056289;28;20032;-87
2022/10/03 17:47:48;;;;;;;0.85;0.80;;;;;;;;;;5040165;28;20040;-88
2022/10/03 17:50:40;;;;;;;;;;;;;;;;;;;;;